createdAt,value
2019-05-03T00:01:58.109Z,8.39
2019-05-03T00:04:26.851Z,8.39
2019-05-03T00:06:55.641Z,8.38
2019-05-03T00:09:24.550Z,8.30
2019-05-03T00:11:53.319Z,8.27
2019-05-03T00:14:22.156Z,8.23
2019-05-03T00:16:52.220Z,8.22
2019-05-03T00:19:21.937Z,8.23
2019-05-03T00:21:52.553Z,8.16
2019-05-03T00:24:22.636Z,8.16
2019-05-03T00:26:51.713Z,8.18
2019-05-03T00:29:22.032Z,8.18
2019-05-03T00:31:51.725Z,8.23
2019-05-03T00:34:22.247Z,8.21
2019-05-03T00:36:55.294Z,8.19
2019-05-03T00:39:37.527Z,8.18
2019-05-03T00:42:06.385Z,8.21
2019-05-03T00:44:35.215Z,8.22
2019-05-03T00:47:03.965Z,8.12
2019-05-03T00:49:32.843Z,8.13
2019-05-03T00:52:02.319Z,8.10
2019-05-03T00:54:31.737Z,8.17
2019-05-03T00:57:02.527Z,8.10
2019-05-03T00:59:32.680Z,8.13
2019-05-03T01:02:02.675Z,8.11
2019-05-03T01:04:31.822Z,8.14
2019-05-03T01:07:02.242Z,8.07
2019-05-03T01:09:31.733Z,8.07
2019-05-03T01:12:01.954Z,8.01
2019-05-03T01:14:31.642Z,7.99
2019-05-03T01:17:02.560Z,7.92
2019-05-03T01:19:32.825Z,7.97
2019-05-03T01:22:02.026Z,7.91
2019-05-03T01:24:32.294Z,7.95
2019-05-03T01:27:01.949Z,7.88
2019-05-03T01:29:32.210Z,7.95
2019-05-03T01:32:02.296Z,7.92
2019-05-03T01:34:32.625Z,7.93
2019-05-03T01:37:02.581Z,7.93
2019-05-03T01:39:31.800Z,7.92
2019-05-03T01:42:02.494Z,7.90
2019-05-03T01:44:32.700Z,7.83
2019-05-03T01:47:03.227Z,7.79
2019-05-03T01:49:33.544Z,7.78
2019-05-03T01:52:16.114Z,7.79
2019-05-03T01:54:44.854Z,7.73
2019-05-03T01:57:13.651Z,7.74
2019-05-03T01:59:42.654Z,7.75
2019-05-03T02:02:13.934Z,7.71
2019-05-03T02:04:44.328Z,7.70
2019-05-03T02:07:13.169Z,7.67
2019-05-03T02:09:41.928Z,7.69
2019-05-03T02:12:12.632Z,7.68
2019-05-03T02:14:42.247Z,7.65
2019-05-03T02:17:12.392Z,7.60
2019-05-03T02:19:42.198Z,7.53
2019-05-03T02:22:12.109Z,7.46
2019-05-03T02:24:42.268Z,7.44
2019-05-03T02:27:12.716Z,7.39
2019-05-03T02:29:41.901Z,7.39
2019-05-03T02:32:13.111Z,7.30
2019-05-03T02:34:43.892Z,7.32
2019-05-03T02:37:13.897Z,7.25
2019-05-03T02:39:42.789Z,7.26
2019-05-03T02:42:12.072Z,7.25
2019-05-03T02:44:41.257Z,7.15
2019-05-03T02:47:15.924Z,7.05
2019-05-03T02:49:46.379Z,7.00
2019-05-03T02:52:35.798Z,6.94
2019-05-03T02:55:10.460Z,6.92
2019-05-03T02:57:39.254Z,6.86
2019-05-03T03:00:10.425Z,6.83
2019-05-03T03:02:40.897Z,6.67
2019-05-03T03:05:10.202Z,6.60
2019-05-03T03:07:40.643Z,6.44
2019-05-03T03:10:09.756Z,6.30
2019-05-03T03:12:42.327Z,6.19
2019-05-03T03:15:11.207Z,6.13
2019-05-03T03:17:41.786Z,6.09
2019-05-03T03:20:11.033Z,6.00
2019-05-03T03:22:45.303Z,5.96
2019-05-03T03:25:17.638Z,5.88
2019-05-03T03:27:48.162Z,5.68
2019-05-03T03:30:39.474Z,5.61
2019-05-03T03:33:11.233Z,5.52
2019-05-03T03:35:41.309Z,5.54
2019-05-03T03:38:10.289Z,5.48
2019-05-03T03:40:40.582Z,5.47
2019-05-03T03:43:10.880Z,5.43
2019-05-03T03:45:39.908Z,5.38
2019-05-03T03:48:10.748Z,5.32
2019-05-03T03:50:45.591Z,5.28
2019-05-03T03:53:15.276Z,5.18
2019-05-03T03:55:46.429Z,5.20
2019-05-03T03:58:21.957Z,5.23
2019-05-03T04:00:46.880Z,5.30
2019-05-03T04:03:15.984Z,5.37
2019-05-03T04:05:55.602Z,5.46
2019-05-03T04:08:25.841Z,5.54
2019-05-03T04:10:55.959Z,5.59
2019-05-03T04:13:25.666Z,5.60
2019-05-03T04:16:12.308Z,5.62
2019-05-03T04:18:45.429Z,5.67
2019-05-03T04:21:16.047Z,5.74
2019-05-03T04:23:45.867Z,5.83
2019-05-03T04:26:16.332Z,5.79
2019-05-03T04:28:45.484Z,5.88
2019-05-03T04:31:15.251Z,5.96
2019-05-03T04:33:47.350Z,6.00
2019-05-03T04:36:16.698Z,6.14
2019-05-03T04:38:45.700Z,6.27
2019-05-03T04:41:15.918Z,6.44
2019-05-03T04:43:45.983Z,6.68
2019-05-03T04:46:22.255Z,6.88
2019-05-03T04:48:51.919Z,7.16
2019-05-03T04:51:20.737Z,7.89
2019-05-03T04:53:51.165Z,8.73
2019-05-03T04:56:19.901Z,9.54
2019-05-03T04:58:48.781Z,11.10
2019-05-03T05:01:17.511Z,12.20
2019-05-03T05:03:46.397Z,13.47
2019-05-03T05:06:16.035Z,14.93
2019-05-03T05:08:46.094Z,15.55
2019-05-03T05:11:17.834Z,15.80
2019-05-03T05:14:00.206Z,15.61
2019-05-03T05:16:29.951Z,15.99
2019-05-03T05:19:06.033Z,16.02
2019-05-03T05:21:39.513Z,16.62
2019-05-03T05:24:08.259Z,16.10
2019-05-03T05:26:44.783Z,16.41
2019-05-03T05:29:18.205Z,15.82
2019-05-03T05:31:46.934Z,14.72
2019-05-03T05:34:15.714Z,14.26
2019-05-03T05:36:45.058Z,12.95
2019-05-03T05:39:18.502Z,13.42
2019-05-03T05:41:45.990Z,13.31
2019-05-03T05:44:14.780Z,13.35
2019-05-03T05:46:51.161Z,14.27
2019-05-03T05:49:45.965Z,15.09
2019-05-03T05:52:15.480Z,15.09
2019-05-03T05:54:45.999Z,16.10
2019-05-03T05:57:25.701Z,16.16
2019-05-03T05:59:56.104Z,16.26
2019-05-03T06:02:25.380Z,16.27
2019-05-03T06:04:54.457Z,16.32
2019-05-03T06:07:30.637Z,15.57
2019-05-03T06:10:07.191Z,15.91
2019-05-03T06:12:45.301Z,16.27
2019-05-03T06:15:31.527Z,15.04
2019-05-03T06:18:01.889Z,15.02
2019-05-03T06:20:34.977Z,14.31
2019-05-03T06:23:05.367Z,14.10
2019-05-03T06:25:35.763Z,14.36
2019-05-03T06:28:17.663Z,14.89
2019-05-03T06:30:41.805Z,14.40
2019-05-03T06:33:10.550Z,13.50
2019-05-03T06:35:39.321Z,13.78
2019-05-03T06:38:08.075Z,13.74
2019-05-03T06:40:36.888Z,13.75
2019-05-03T06:43:09.727Z,14.19
2019-05-03T06:45:36.129Z,14.68
2019-05-03T06:48:05.559Z,15.05
2019-05-03T06:50:34.807Z,14.87
2019-05-03T06:53:05.797Z,14.38
2019-05-03T06:55:35.103Z,15.06
2019-05-03T06:58:05.249Z,15.53
2019-05-03T07:00:35.598Z,15.53
2019-05-03T07:03:07.209Z,15.10
2019-05-03T07:05:49.647Z,14.30
2019-05-03T07:08:38.060Z,14.25
2019-05-03T07:11:08.287Z,13.48
2019-05-03T07:13:37.083Z,13.64
2019-05-03T07:16:05.891Z,13.40
2019-05-03T07:18:35.150Z,12.83
2019-05-03T07:21:04.870Z,12.38
2019-05-03T07:23:34.965Z,12.14
2019-05-03T07:26:05.363Z,11.93
2019-05-03T07:28:46.442Z,11.88
2019-05-03T07:31:04.966Z,11.92
2019-05-03T07:33:35.192Z,12.04
2019-05-03T07:36:05.388Z,12.59
2019-05-03T07:38:35.003Z,12.50
2019-05-03T07:41:05.254Z,12.82
2019-05-03T07:43:36.111Z,12.88
2019-05-03T07:46:05.710Z,12.86
2019-05-03T07:48:35.346Z,12.91
2019-05-03T07:51:05.615Z,12.97
2019-05-03T07:53:34.943Z,12.83
2019-05-03T07:56:05.489Z,13.64
2019-05-03T07:58:38.663Z,14.44
2019-05-03T08:01:10.103Z,14.41
2019-05-03T08:03:39.056Z,13.91
2019-05-03T08:06:07.810Z,14.17
2019-05-03T08:08:36.542Z,13.07
2019-05-03T08:11:05.464Z,14.24
2019-05-03T08:13:35.551Z,14.64
2019-05-03T08:16:05.841Z,15.02
2019-05-03T08:18:35.464Z,14.39
2019-05-03T08:21:05.779Z,14.76
2019-05-03T08:23:35.402Z,14.84
2019-05-03T08:26:06.104Z,14.68
2019-05-03T08:28:34.971Z,14.56
2019-05-03T08:31:23.901Z,14.74
2019-05-03T08:33:55.340Z,15.53
2019-05-03T08:36:24.774Z,15.79
2019-05-03T08:38:56.101Z,15.04
2019-05-03T08:41:25.685Z,14.21
2019-05-03T08:43:54.985Z,13.82
2019-05-03T08:46:25.323Z,13.49
2019-05-03T08:48:54.839Z,13.56
2019-05-03T08:51:24.970Z,13.83
2019-05-03T08:53:55.996Z,14.40
2019-05-03T08:56:24.679Z,15.08
2019-05-03T08:58:55.334Z,15.64
2019-05-03T09:01:25.208Z,15.93
2019-05-03T09:03:55.858Z,15.72
2019-05-03T09:06:24.902Z,14.80
2019-05-03T09:08:56.919Z,14.69
2019-05-03T09:11:33.306Z,15.52
2019-05-03T09:14:02.043Z,15.61
2019-05-03T09:16:30.808Z,15.45
2019-05-03T09:18:59.600Z,15.36
2019-05-03T09:21:28.488Z,15.24
2019-05-03T09:23:57.232Z,15.94
2019-05-03T09:26:29.165Z,15.44
2019-05-03T09:28:56.463Z,14.82
2019-05-03T09:31:25.239Z,14.20
2019-05-03T09:33:54.792Z,13.91
2019-05-03T09:36:25.261Z,13.55
2019-05-03T09:38:54.866Z,13.26
2019-05-03T09:41:25.579Z,13.06
2019-05-03T09:43:55.417Z,12.94
2019-05-03T09:46:26.419Z,12.89
2019-05-03T09:49:03.560Z,12.95
2019-05-03T09:51:25.745Z,13.36
2019-05-03T09:53:56.078Z,14.42
2019-05-03T09:56:53.017Z,15.39
2019-05-03T09:59:14.676Z,15.93
2019-05-03T10:01:45.422Z,16.39
2019-05-03T10:04:13.925Z,16.64
2019-05-03T10:06:45.130Z,16.97
2019-05-03T10:09:15.432Z,16.39
2019-05-03T10:11:45.819Z,16.32
2019-05-03T10:14:19.834Z,16.90
2019-05-03T10:16:50.835Z,16.62
2019-05-03T10:19:19.581Z,17.19
2019-05-03T10:21:48.829Z,17.43
2019-05-03T10:24:17.589Z,17.82
2019-05-03T10:26:46.383Z,16.86
2019-05-03T10:29:16.276Z,16.30
2019-05-03T10:31:47.200Z,15.56
2019-05-03T10:34:16.905Z,14.45
2019-05-03T10:36:46.723Z,14.01
2019-05-03T10:39:16.105Z,13.67
2019-05-03T10:41:45.422Z,13.21
2019-05-03T10:44:15.051Z,13.25
2019-05-03T10:46:45.328Z,13.04
2019-05-03T10:49:20.280Z,12.90
2019-05-03T10:51:54.978Z,12.78
2019-05-03T10:54:24.385Z,12.62
2019-05-03T10:57:01.341Z,12.90
2019-05-03T10:59:30.254Z,12.90
2019-05-03T11:02:06.489Z,13.48
2019-05-03T11:04:35.710Z,14.10
2019-05-03T11:07:08.137Z,14.74
2019-05-03T11:09:48.519Z,14.59
2019-05-03T11:12:07.708Z,14.55
2019-05-03T11:14:36.554Z,14.21
2019-05-03T11:17:05.770Z,14.18
2019-05-03T11:19:34.883Z,14.30
2019-05-03T11:22:05.424Z,15.00
2019-05-03T11:24:36.582Z,15.18
2019-05-03T11:27:09.237Z,15.97
2019-05-03T11:29:38.618Z,16.77
2019-05-03T11:32:11.045Z,17.05
2019-05-03T11:34:47.573Z,16.57
2019-05-03T11:37:20.920Z,15.71
2019-05-03T11:39:50.768Z,15.17
2019-05-03T11:42:21.555Z,14.38
2019-05-03T11:44:51.232Z,14.04
2019-05-03T11:47:20.420Z,13.95
2019-05-03T11:49:49.819Z,13.71
2019-05-03T11:52:19.182Z,13.76
2019-05-03T11:54:56.158Z,14.11
2019-05-03T11:57:29.137Z,14.77
2019-05-03T11:59:58.669Z,15.32
2019-05-03T12:02:29.728Z,14.90
2019-05-03T12:05:07.689Z,14.67
2019-05-03T12:07:39.963Z,14.34
2019-05-03T12:10:26.718Z,14.65
2019-05-03T12:12:48.802Z,14.61
2019-05-03T12:15:22.829Z,14.86
2019-05-03T12:17:58.905Z,14.71
2019-05-03T12:20:32.394Z,15.27
2019-05-03T12:23:06.848Z,14.97
2019-05-03T12:25:39.221Z,14.97
2019-05-03T12:28:08.760Z,15.85
2019-05-03T12:30:41.187Z,16.59
2019-05-03T12:33:15.315Z,15.74
2019-05-03T12:35:47.695Z,15.31
2019-05-03T12:38:17.802Z,14.93
2019-05-03T12:40:47.362Z,14.74
2019-05-03T12:43:17.694Z,14.78
2019-05-03T12:45:47.114Z,15.77
2019-05-03T12:48:16.501Z,16.19
2019-05-03T12:50:46.720Z,15.67
2019-05-03T12:53:16.084Z,15.05
2019-05-03T12:55:45.607Z,14.57
2019-05-03T12:58:15.367Z,14.16
2019-05-03T13:01:01.827Z,13.90
2019-05-03T13:03:32.542Z,13.61
2019-05-03T13:06:04.519Z,13.37
2019-05-03T13:08:40.226Z,13.21
2019-05-03T13:11:09.515Z,12.97
2019-05-03T13:13:38.740Z,12.85
2019-05-03T13:16:10.142Z,12.90
2019-05-03T13:18:39.146Z,12.79
2019-05-03T13:21:08.185Z,12.75
2019-05-03T13:23:37.395Z,12.78
2019-05-03T13:26:06.689Z,12.96
2019-05-03T13:28:35.966Z,14.25
2019-05-03T13:31:06.191Z,14.70
2019-05-03T13:33:35.373Z,14.52
2019-05-03T13:36:06.287Z,15.06
2019-05-03T13:38:35.502Z,14.52
2019-05-03T13:41:06.589Z,14.26
2019-05-03T13:43:36.153Z,13.36
2019-05-03T13:46:05.786Z,13.77
2019-05-03T13:48:42.673Z,13.71
2019-05-03T13:51:06.246Z,13.92
2019-05-03T13:53:35.503Z,14.58
2019-05-03T13:56:05.045Z,14.82
2019-05-03T13:58:35.889Z,14.56
2019-05-03T14:01:05.860Z,14.15
2019-05-03T14:03:35.409Z,14.17
2019-05-03T14:06:08.572Z,14.31
2019-05-03T14:08:36.001Z,14.09
2019-05-03T14:11:05.325Z,14.32
2019-05-03T14:13:35.451Z,13.62
2019-05-03T14:16:05.932Z,14.28
2019-05-03T14:18:35.513Z,14.19
2019-05-03T14:21:06.856Z,14.03
2019-05-03T14:23:53.547Z,13.55
2019-05-03T14:26:24.445Z,13.87
2019-05-03T14:28:54.387Z,13.81
2019-05-03T14:31:25.035Z,13.41
2019-05-03T14:33:55.674Z,13.50
2019-05-03T14:36:25.119Z,13.64
2019-05-03T14:38:54.876Z,13.67
2019-05-03T14:41:25.421Z,13.79
2019-05-03T14:43:55.690Z,13.50
2019-05-03T14:46:32.739Z,13.36
2019-05-03T14:48:55.144Z,13.04
2019-05-03T14:51:25.383Z,12.99
2019-05-03T14:53:56.852Z,12.99
2019-05-03T14:56:26.387Z,13.03
2019-05-03T14:59:14.789Z,12.91
2019-05-03T15:01:48.573Z,12.95
2019-05-03T15:04:17.744Z,12.84
2019-05-03T15:06:46.544Z,12.59
2019-05-03T15:09:18.589Z,12.36
2019-05-03T15:11:45.958Z,12.29
2019-05-03T15:14:14.735Z,12.26
2019-05-03T15:16:45.042Z,12.07
2019-05-03T15:19:14.801Z,12.13
2019-05-03T15:21:45.273Z,12.05
2019-05-03T15:24:14.560Z,11.81
2019-05-03T15:26:44.768Z,11.73
2019-05-03T15:29:15.549Z,12.05
2019-05-03T15:31:44.808Z,12.25
2019-05-03T15:34:15.248Z,12.68
2019-05-03T15:36:49.983Z,12.90
2019-05-03T15:39:18.811Z,13.05
2019-05-03T15:41:47.674Z,12.72
2019-05-03T15:44:34.176Z,12.56
2019-05-03T15:47:09.627Z,12.67
2019-05-03T15:49:37.908Z,12.47
2019-05-03T15:52:07.264Z,12.19
2019-05-03T15:54:37.104Z,12.27
2019-05-03T15:57:14.521Z,12.13
2019-05-03T15:59:52.702Z,11.91
2019-05-03T16:02:25.015Z,11.69
2019-05-03T16:04:56.364Z,11.48
2019-05-03T16:07:30.319Z,11.39
2019-05-03T16:09:59.331Z,11.32
2019-05-03T16:12:28.235Z,11.27
2019-05-03T16:14:57.369Z,11.23
2019-05-03T16:17:26.182Z,11.22
2019-05-03T16:19:55.836Z,11.22
2019-05-03T16:22:28.539Z,11.20
2019-05-03T16:24:57.618Z,11.13
2019-05-03T16:27:31.226Z,11.23
2019-05-03T16:30:00.819Z,11.16
2019-05-03T16:32:29.817Z,11.23
2019-05-03T16:34:59.524Z,11.26
2019-05-03T16:37:28.348Z,11.38
2019-05-03T16:39:57.877Z,11.35
2019-05-03T16:42:26.732Z,11.20
2019-05-03T16:44:55.650Z,11.17
2019-05-03T16:47:25.019Z,11.17
2019-05-03T16:49:54.219Z,11.07
2019-05-03T16:52:27.853Z,11.05
2019-05-03T16:54:57.092Z,10.92
2019-05-03T16:57:28.888Z,10.87
2019-05-03T16:59:58.642Z,10.77
2019-05-03T17:02:27.988Z,10.72
2019-05-03T17:05:01.507Z,10.60
2019-05-03T17:07:42.455Z,10.45
2019-05-03T17:10:27.902Z,10.43
2019-05-03T17:12:57.038Z,10.31
2019-05-03T17:15:26.760Z,10.12
2019-05-03T17:17:55.794Z,9.96
2019-05-03T17:20:25.437Z,9.78
2019-05-03T17:23:04.485Z,9.81
2019-05-03T17:25:35.134Z,9.78
2019-05-03T17:28:06.712Z,9.73
2019-05-03T17:30:37.394Z,9.75
2019-05-03T17:33:06.388Z,9.64
2019-05-03T17:35:36.536Z,9.57
2019-05-03T17:38:05.672Z,9.46
2019-05-03T17:40:49.179Z,9.35
2019-05-03T17:43:23.233Z,9.32
2019-05-03T17:46:00.146Z,9.18
2019-05-03T17:48:29.673Z,9.12
2019-05-03T17:50:59.929Z,8.95
2019-05-03T17:53:40.070Z,8.86
2019-05-03T17:56:20.218Z,8.80
2019-05-03T17:58:51.207Z,8.85
2019-05-03T18:01:31.051Z,8.81
2019-05-03T18:04:08.856Z,8.88
2019-05-03T18:06:35.768Z,8.81
2019-05-03T18:09:14.758Z,8.80
2019-05-03T18:11:45.145Z,8.76
2019-05-03T18:14:17.695Z,8.74
2019-05-03T18:16:46.838Z,8.66
2019-05-03T18:19:15.652Z,8.61
2019-05-03T18:21:44.992Z,8.50
2019-05-03T18:24:15.367Z,8.53
2019-05-03T18:26:44.724Z,8.54
2019-05-03T18:29:14.687Z,8.50
2019-05-03T18:31:44.592Z,8.46
2019-05-03T18:34:21.548Z,8.41
2019-05-03T18:36:45.053Z,8.43
2019-05-03T18:39:15.196Z,8.44
2019-05-03T18:41:45.196Z,8.40
2019-05-03T18:44:25.372Z,8.44
2019-05-03T18:46:59.242Z,8.43
2019-05-03T18:49:29.959Z,8.45
2019-05-03T18:51:58.760Z,8.38
2019-05-03T18:54:27.902Z,8.31
2019-05-03T18:56:56.782Z,8.33
2019-05-03T18:59:28.562Z,8.28
2019-05-03T19:01:57.563Z,8.25
2019-05-03T19:04:34.735Z,8.26
2019-05-03T19:07:04.513Z,8.28
2019-05-03T19:09:40.406Z,8.15
2019-05-03T19:12:19.992Z,8.02
2019-05-03T19:14:50.461Z,8.04
2019-05-03T19:17:21.224Z,8.01
2019-05-03T19:19:57.673Z,7.99
2019-05-03T19:22:27.006Z,7.99
2019-05-03T19:24:56.444Z,7.97
2019-05-03T19:27:26.063Z,7.87
2019-05-03T19:29:55.541Z,7.75
2019-05-03T19:32:28.210Z,7.66
2019-05-03T19:34:58.566Z,7.50
2019-05-03T19:37:29.849Z,7.41
2019-05-03T19:39:58.822Z,7.38
2019-05-03T19:42:27.617Z,7.28
2019-05-03T19:44:56.748Z,7.24
2019-05-03T19:47:25.781Z,7.23
2019-05-03T19:49:55.313Z,7.17
2019-05-03T19:52:42.093Z,7.14
2019-05-03T19:55:15.404Z,7.11
2019-05-03T19:57:47.510Z,7.12
2019-05-03T20:00:17.985Z,7.09
2019-05-03T20:02:54.785Z,7.06
2019-05-03T20:05:48.248Z,7.07
2019-05-03T20:08:20.462Z,7.05
2019-05-03T20:10:50.526Z,7.09
2019-05-03T20:13:32.037Z,7.11
2019-05-03T20:15:51.849Z,7.05
2019-05-03T20:18:24.678Z,7.04
2019-05-03T20:20:55.344Z,7.07
2019-05-03T20:23:25.418Z,7.11
2019-05-03T20:25:58.580Z,7.04
2019-05-03T20:28:33.163Z,7.05
2019-05-03T20:31:04.998Z,7.07
2019-05-03T20:33:36.088Z,7.08
2019-05-03T20:36:12.748Z,7.11
2019-05-03T20:38:41.777Z,7.13
2019-05-03T20:41:10.676Z,7.14
2019-05-03T20:43:46.810Z,7.09
2019-05-03T20:46:17.244Z,7.12
2019-05-03T20:48:47.580Z,7.08
2019-05-03T20:51:16.434Z,7.15
2019-05-03T20:53:45.388Z,7.13
2019-05-03T20:56:15.449Z,7.07
2019-05-03T20:58:44.712Z,7.07
2019-05-03T21:01:15.300Z,7.09
2019-05-03T21:03:45.626Z,7.06
2019-05-03T21:06:16.495Z,7.03
2019-05-03T21:08:52.908Z,6.98
2019-05-03T21:11:19.968Z,6.95
2019-05-03T21:13:50.099Z,6.97
2019-05-03T21:16:22.095Z,6.95
2019-05-03T21:18:54.294Z,6.93
2019-05-03T21:21:29.344Z,6.93
2019-05-03T21:24:04.583Z,6.91
2019-05-03T21:26:34.613Z,6.90
2019-05-03T21:29:04.747Z,6.89
2019-05-03T21:31:35.239Z,6.94
2019-05-03T21:34:05.631Z,6.87
2019-05-03T21:36:34.932Z,6.88
2019-05-03T21:39:05.774Z,6.89
2019-05-03T21:41:35.246Z,6.91
2019-05-03T21:44:05.923Z,6.90
2019-05-03T21:46:36.229Z,5.77
2019-05-03T21:49:06.567Z,6.77
2019-05-03T21:51:35.342Z,6.76
2019-05-03T21:54:06.857Z,6.77
2019-05-03T21:56:49.779Z,6.77
2019-05-03T21:59:19.739Z,6.71
2019-05-03T22:01:51.088Z,6.76
2019-05-03T22:04:19.983Z,6.72
2019-05-03T22:06:49.954Z,6.55
2019-05-03T22:09:18.918Z,6.58
2019-05-03T22:11:48.987Z,6.57
2019-05-03T22:14:19.650Z,6.59
2019-05-03T22:16:50.705Z,6.62
2019-05-03T22:19:19.695Z,6.62
2019-05-03T22:21:55.251Z,6.63
2019-05-03T22:24:28.770Z,6.64
2019-05-03T22:27:07.001Z,6.54
2019-05-03T22:29:35.720Z,6.52
2019-05-03T22:32:05.410Z,6.43
2019-05-03T22:34:34.862Z,6.38
2019-05-03T22:37:03.796Z,6.37
2019-05-03T22:39:32.685Z,6.36
2019-05-03T22:42:01.711Z,6.35
2019-05-03T22:44:30.449Z,6.34
2019-05-03T22:46:59.197Z,6.34
2019-05-03T22:49:27.976Z,6.35
2019-05-03T22:51:56.748Z,6.34
2019-05-03T22:54:25.502Z,6.36
2019-05-03T22:56:55.475Z,6.32
2019-05-03T22:59:25.189Z,6.32
2019-05-03T23:01:54.749Z,6.30
2019-05-03T23:04:25.331Z,6.24
2019-05-03T23:06:55.628Z,6.28
2019-05-03T23:09:25.003Z,6.29
2019-05-03T23:11:55.434Z,6.35
2019-05-03T23:14:25.531Z,6.29
2019-05-03T23:16:54.484Z,6.27
2019-05-03T23:19:23.367Z,6.28
2019-05-03T23:21:54.446Z,6.30
2019-05-03T23:24:24.734Z,6.27
2019-05-03T23:26:53.547Z,6.30
2019-05-03T23:29:22.330Z,6.27
2019-05-03T23:31:51.104Z,6.29
2019-05-03T23:34:20.197Z,6.25
2019-05-03T23:36:49.078Z,6.24
2019-05-03T23:39:17.915Z,6.23
2019-05-03T23:41:46.678Z,6.20
2019-05-03T23:44:15.484Z,6.20
2019-05-03T23:47:02.075Z,6.20
2019-05-03T23:49:30.885Z,6.20
2019-05-03T23:52:04.535Z,6.18
2019-05-03T23:54:33.735Z,6.14
2019-05-03T23:57:02.458Z,6.11
2019-05-03T23:59:31.202Z,6.07
